CheckWX is a tool to help pilots better visualize weather data.  It is not intended as a substitute for an official pre-flight weather briefing.

23:15:40 UTC

LFRK TAF
Caen-Carpiquet Airport
Caen/Carpiquet, France
TAF LFRK 091400Z 0915/0924 27010KT 9999 SCT015 TEMPO 0915/0917 27015G25KT TEMPO 0918/0924 BKN012

Jul-9@
15:00 UTC

Jul-9 @ 15:00 UTC

Jul-10@
00:00 UTC

Jul-10 @ 00:00 UTC

TAF LFRK 091400Z 0915/0924 27010KT 9999 SCT015
Wind
  • 270° at 10 KTS
Cloud Levels
  • Scattered at 1,500' AGL

Jul-9@
15:00 UTC

Jul-9 @ 15:00 UTC

Jul-9@
17:00 UTC

Jul-9 @ 17:00 UTC

TEMPO 0915/0917 27015G25KT

Expired

Wind
  • 270° at 15 KTS
  • {Gusting to 25 KTS
Cloud Levels

Jul-9@
18:00 UTC

Jul-9 @ 18:00 UTC

Jul-10@
00:00 UTC

Jul-10 @ 00:00 UTC

TEMPO 0918/0924 BKN012

Temporary

Temporary Changes expected for less than half the time period

Cloud Levels
  • Broken at 1,200' AGL